Hauptseite
METAR-TAF:

METAR-TAF

Flughäfen :

Flugplatz Hamburg-Finkenwerder

Finkenwerder, Deutschland

Breite: 53-32N, Länge: 009-50E, Höhe: 5 m

Beobachtung

Neuester Wetterbericht von vor 36 Minuten, um 23:50 UTC
Wind 3 kt aus Südost
Temperatur 2°C
Luftfeuchtigkeit 93%
Luftdruck 1000 hPa
Sichtweite 10 km oder mehr

METAR: EDHI 122350Z AUTO 14003KT 9999 // BKN240/// 02/01 Q1000

Zeit: 01:26 (00:26 UTC)

Prognose

Neuester Wetterbericht von vor 7 Stunden und 26 Minuten, um 17:00 UTC
Gültige Prognose vom 12 um 18 UTC bis 12 um 21 UTC
Wind 7 kt aus Süd/Südost
Sichtweite 10 km oder mehr
Aufgelockert bewölkt in der Höhe von 3000 ft
Wahrscheinlichkeit 30% :
Zeitweise
vom 12 um 18 UTC bis 12 um 20 UTC
Durchbrochene Bewölkung in der Höhe von 1500 ft, Kumulonimbus.
Regenschauer

TAF: EDHI 121700Z 1218/1221 16007KT 9999 SCT030 PROB30 TEMPO 1218/1220 SHRA BKN015CB

Wetterbeobachtungen und Prognosen von mehr als 4000 Flughäfen (METAR und TAF Bericht).

Die verfügbaren Stationen werden durch gelbe und rote Markierungen auf der Karte dargestellt.

Führen Sie die Maus auf sie, um den Namen der Station zu sehen.

Darauf klicken, um die Beobachtung von Wetterbeobachtungen und Prognosen zu sehen.

Um die Karte zu ändern : klicken Sie auf den grünen Tasten mit einem schwarzen Kreuz Zum Vergrößern, auf den grünen Button mit einem Gedankenstrich zu verkleinern, oder auf die grünen Pfeile für benachbarte Karten.


METAR-TAF: